Time;durP1;ratioP1;P1;durP2;ratioP2;P2;SDS_P1;SDS_P2;PMS_P1;PMS_P2;Temp;Humidity;BMP_temperature;BMP_pressure;BME280_temperature;BME280_humidity;BME280_pressure;Samples;Min_cycle;Max_cycle;Signal;HPM_P1;HPM_P2
2023/06/24 00:01:33;;;;;;;24.53;23.37;;;25.20;97.20;;;;;;5012384;28;20553;-53
2023/06/24 00:04:00;;;;;;;25.87;24.67;;;25.20;97.40;;;;;;5012324;28;20589;-54
2023/06/24 00:06:27;;;;;;;27.30;26.10;;;25.20;97.20;;;;;;5012244;28;20485;-57
2023/06/24 00:09:00;;;;;;;25.20;23.70;;;25.20;97.40;;;;;;5023177;28;20488;-55
2023/06/24 00:11:28;;;;;;;26.07;24.87;;;25.20;97.50;;;;;;5031828;28;20974;-53
2023/06/24 00:13:55;;;;;;;25.13;23.93;;;25.20;97.50;;;;;;5032016;28;20476;-55
2023/06/24 00:16:27;;;;;;;26.27;25.17;;;25.20;97.80;;;;;;5031746;28;20485;-54
2023/06/24 00:18:55;;;;;;;24.70;23.57;;;25.20;98.00;;;;;;5031320;28;20457;-56
2023/06/24 00:21:22;;;;;;;24.77;23.57;;;25.10;98.10;;;;;;5031722;28;20465;-52
2023/06/24 00:23:49;;;;;;;25.47;24.17;;;25.20;98.20;;;;;;5031878;28;20530;-53
2023/06/24 00:26:18;;;;;;;24.00;23.00;;;25.10;98.30;;;;;;5031485;28;20536;-54
2023/06/24 00:28:45;;;;;;;25.30;23.93;;;25.00;98.40;;;;;;5031209;28;20445;-56
2023/06/24 00:31:12;;;;;;;30.27;28.87;;;25.00;98.20;;;;;;5031802;28;20469;-55
2023/06/24 00:33:39;;;;;;;25.37;24.17;;;25.00;98.40;;;;;;5031702;28;20444;-56
2023/06/24 00:36:08;;;;;;;26.10;24.70;;;25.00;98.60;;;;;;5030010;28;20503;-54
2023/06/24 00:38:35;;;;;;;25.10;24.00;;;25.00;98.70;;;;;;5011955;28;20484;-54
2023/06/24 00:41:02;;;;;;;25.80;24.20;;;25.00;98.60;;;;;;5011801;28;20553;-53
2023/06/24 00:43:31;;;;;;;25.30;24.00;;;24.90;98.90;;;;;;5011948;28;20454;-56
2023/06/24 00:45:58;;;;;;;23.87;22.87;;;25.00;98.80;;;;;;5011858;28;20493;-54
2023/06/24 00:48:25;;;;;;;24.03;22.73;;;25.00;98.80;;;;;;5031478;28;20485;-57
2023/06/24 00:50:52;;;;;;;25.17;24.07;;;24.90;98.90;;;;;;5031260;28;21024;-56
2023/06/24 00:53:24;;;;;;;25.97;24.77;;;24.90;98.90;;;;;;5031602;28;20473;-56
2023/06/24 00:55:52;;;;;;;25.03;23.93;;;24.90;99.20;;;;;;5034360;28;20437;-57
2023/06/24 00:58:20;;;;;;;26.07;24.77;;;24.90;99.10;;;;;;5016392;28;20480;-58
2023/06/24 01:00:56;;;;;;;25.30;24.17;;;24.90;99.30;;;;;;5015605;28;20477;-55
2023/06/24 01:03:25;;;;;;;26.20;24.90;;;24.90;99.20;;;;;;5015763;28;20485;-56
2023/06/24 01:05:53;;;;;;;24.60;23.30;;;24.90;99.20;;;;;;5015478;28;20584;-56
2023/06/24 01:08:22;;;;;;;24.30;23.20;;;24.80;99.20;;;;;;5033786;28;20450;-55
2023/06/24 01:10:49;;;;;;;24.00;22.80;;;24.80;99.20;;;;;;5035370;28;20998;-53
2023/06/24 01:13:16;;;;;;;24.43;23.23;;;24.80;99.20;;;;;;5035265;28;20484;-52
2023/06/24 01:15:43;;;;;;;26.03;24.77;;;24.80;99.30;;;;;;5025091;28;20480;-54
2023/06/24 01:18:18;;;;;;;25.10;24.00;;;24.70;99.40;;;;;;5015312;28;20537;-55
2023/06/24 01:20:50;;;;;;;25.50;24.23;;;24.80;99.30;;;;;;5015280;28;20469;-56
2023/06/24 01:23:40;;;;;;;24.37;23.30;;;24.70;99.30;;;;;;5015466;28;20480;-53
2023/06/24 01:26:36;;;;;;;24.37;23.07;;;24.70;99.40;;;;;;5027706;28;20572;-53
2023/06/24 01:29:32;;;;;;;24.97;23.83;;;24.70;99.50;;;;;;5035059;28;20965;-53
2023/06/24 01:32:02;;;;;;;22.73;21.73;;;24.70;99.50;;;;;;5034862;28;20499;-55
2023/06/24 01:34:33;;;;;;;23.20;22.20;;;24.70;99.40;;;;;;5034294;28;20972;-51
2023/06/24 01:37:11;;;;;;;25.00;23.80;;;24.70;99.60;;;;;;5034732;28;20534;-55
2023/06/24 01:39:46;;;;;;;24.43;23.40;;;24.70;99.60;;;;;;5034783;28;20448;-54
2023/06/24 01:42:17;;;;;;;24.50;23.40;;;24.60;99.40;;;;;;5034068;28;20467;-53
2023/06/24 01:44:48;;;;;;;25.00;23.90;;;24.60;99.50;;;;;;5034749;28;20481;-52
2023/06/24 01:47:22;;;;;;;23.93;22.83;;;24.60;99.50;;;;;;5034597;28;20982;-53
2023/06/24 01:49:53;;;;;;;23.80;22.73;;;24.60;99.30;;;;;;5034896;28;20878;-52
2023/06/24 01:52:23;;;;;;;23.80;22.60;;;24.60;99.20;;;;;;5033900;28;21004;-52
2023/06/24 01:54:52;;;;;;;24.03;22.80;;;24.60;99.00;;;;;;5034423;28;20448;-55
2023/06/24 01:57:21;;;;;;;24.00;23.00;;;24.50;99.00;;;;;;5034341;28;20480;-54
2023/06/24 01:59:50;;;;;;;23.63;22.57;;;24.50;99.10;;;;;;5034418;28;20477;-53
2023/06/24 02:02:20;;;;;;;23.60;22.50;;;24.50;99.10;;;;;;5034012;28;20518;-53
2023/06/24 02:04:47;;;;;;;24.50;23.50;;;24.50;99.00;;;;;;5034245;28;20978;-54
2023/06/24 02:07:14;;;;;;;25.57;24.47;;;24.50;99.10;;;;;;5033490;28;20544;-54
2023/06/24 02:09:43;;;;;;;25.17;24.07;;;24.40;99.20;;;;;;5034310;28;20449;-52
2023/06/24 02:12:11;;;;;;;23.63;22.63;;;24.40;99.00;;;;;;5033791;28;20504;-52
2023/06/24 02:14:39;;;;;;;23.90;22.80;;;24.40;98.60;;;;;;5034203;28;20469;-59
2023/06/24 02:17:10;;;;;;;23.93;22.70;;;24.50;98.50;;;;;;5033885;28;20487;-56
2023/06/24 02:19:40;;;;;;;26.53;25.13;;;24.40;98.30;;;;;;5034119;28;20480;-56
2023/06/24 02:22:09;;;;;;;22.90;21.87;;;24.40;98.20;;;;;;5028237;28;20565;-56
2023/06/24 02:24:38;;;;;;;23.60;22.57;;;24.40;98.40;;;;;;5014112;28;20902;-52
2023/06/24 02:27:07;;;;;;;25.60;24.40;;;24.40;97.80;;;;;;5014014;28;20469;-52
2023/06/24 02:29:36;;;;;;;23.27;22.37;;;24.40;97.70;;;;;;5014082;28;20473;-53
2023/06/24 02:32:03;;;;;;;22.13;20.93;;;24.30;97.60;;;;;;5018815;28;20501;-51
2023/06/24 02:34:30;;;;;;;23.90;22.70;;;24.30;97.50;;;;;;5033671;28;20857;-54
2023/06/24 02:36:58;;;;;;;23.93;22.73;;;24.30;97.20;;;;;;5033517;28;20480;-55
2023/06/24 02:39:25;;;;;;;24.20;23.10;;;24.30;97.00;;;;;;5033639;28;20484;-57
2023/06/24 02:41:52;;;;;;;22.90;21.90;;;24.30;96.90;;;;;;5033138;28;20941;-53
2023/06/24 02:44:19;;;;;;;24.83;23.70;;;24.30;97.00;;;;;;5033533;28;20488;-51
2023/06/24 02:46:48;;;;;;;24.33;22.97;;;24.30;96.80;;;;;;5033404;28;20481;-55
2023/06/24 02:49:18;;;;;;;23.47;22.57;;;24.30;96.80;;;;;;5033567;28;20500;-51
2023/06/24 02:51:45;;;;;;;23.23;21.83;;;24.30;96.80;;;;;;5032372;28;20480;-54
2023/06/24 02:54:15;;;;;;;22.30;21.30;;;24.30;96.60;;;;;;5033388;28;20477;-55
2023/06/24 02:56:44;;;;;;;23.40;22.37;;;24.30;96.50;;;;;;5033209;28;20476;-55
2023/06/24 02:59:11;;;;;;;24.10;23.00;;;24.30;96.30;;;;;;5033268;28;20450;-53
2023/06/24 03:01:39;;;;;;;24.10;23.10;;;24.30;96.30;;;;;;5019345;28;20564;-54
2023/06/24 03:04:07;;;;;;;22.70;21.50;;;24.30;96.40;;;;;;5013374;28;20545;-55
2023/06/24 03:06:36;;;;;;;24.30;23.10;;;24.20;96.50;;;;;;5013142;28;20560;-53
2023/06/24 03:09:04;;;;;;;24.13;23.13;;;24.20;96.60;;;;;;5013554;28;20450;-57
2023/06/24 03:11:32;;;;;;;22.70;21.70;;;24.20;96.60;;;;;;5024690;28;20466;-56
2023/06/24 03:14:00;;;;;;;24.50;23.30;;;24.20;96.80;;;;;;5033010;28;20989;-54
2023/06/24 03:16:28;;;;;;;24.80;23.70;;;24.20;96.80;;;;;;5032700;28;20452;-54
2023/06/24 03:18:54;;;;;;;24.50;23.40;;;24.20;97.00;;;;;;5031862;28;20839;-53
2023/06/24 03:21:25;;;;;;;23.73;22.67;;;24.20;97.10;;;;;;5031816;28;20499;-54
2023/06/24 03:23:51;;;;;;;27.60;26.10;;;24.10;97.10;;;;;;5032970;28;20445;-54
2023/06/24 03:26:18;;;;;;;23.57;22.60;;;24.20;97.10;;;;;;5032519;28;20516;-53
2023/06/24 03:28:47;;;;;;;25.57;24.27;;;24.20;97.10;;;;;;5032647;28;20536;-55
2023/06/24 03:31:15;;;;;;;24.30;23.30;;;24.20;97.20;;;;;;5021931;28;20480;-51
2023/06/24 03:33:44;;;;;;;23.53;22.37;;;24.20;97.40;;;;;;5012907;28;20983;-54
2023/06/24 03:36:11;;;;;;;22.63;21.73;;;24.20;97.40;;;;;;5012748;28;20442;-53
2023/06/24 03:38:38;;;;;;;23.37;22.40;;;24.20;97.30;;;;;;5015128;28;20450;-52
2023/06/24 03:41:05;;;;;;;24.23;23.20;;;24.10;97.40;;;;;;5029461;28;20547;-55
2023/06/24 03:43:32;;;;;;;23.20;22.20;;;24.10;97.40;;;;;;5032365;28;20484;-55
2023/06/24 03:46:00;;;;;;;23.37;22.23;;;24.10;97.40;;;;;;5032315;28;20581;-54
2023/06/24 03:48:28;;;;;;;23.67;22.57;;;24.10;97.40;;;;;;5031009;28;20784;-52
2023/06/24 03:50:55;;;;;;;24.80;23.70;;;24.10;97.30;;;;;;5012251;28;20505;-54
2023/06/24 03:53:21;;;;;;;23.83;22.70;;;24.10;97.40;;;;;;5012617;28;20713;-54
2023/06/24 03:55:48;;;;;;;22.60;21.67;;;24.10;97.40;;;;;;5012364;28;20870;-55
2023/06/24 03:58:16;;;;;;;24.63;23.33;;;24.10;97.50;;;;;;5025065;28;20481;-56
2023/06/24 04:00:44;;;;;;;25.63;24.23;;;24.10;97.70;;;;;;5032089;28;20480;-56
2023/06/24 04:03:12;;;;;;;25.20;23.83;;;24.00;97.80;;;;;;5032117;28;20445;-55
2023/06/24 04:05:39;;;;;;;24.50;23.50;;;24.10;97.90;;;;;;5018090;28;20572;-53
2023/06/24 04:08:07;;;;;;;25.00;23.80;;;24.00;98.10;;;;;;5012308;28;20529;-55
2023/06/24 04:10:34;;;;;;;25.37;24.30;;;24.00;98.30;;;;;;5012104;28;20454;-53
2023/06/24 04:13:01;;;;;;;27.03;25.87;;;24.00;98.60;;;;;;5012326;28;20489;-54
2023/06/24 04:15:28;;;;;;;24.77;23.67;;;24.00;98.90;;;;;;5012011;28;20541;-55
2023/06/24 04:17:55;;;;;;;25.30;24.10;;;24.00;99.00;;;;;;5012157;28;20533;-57
2023/06/24 04:20:23;;;;;;;24.60;23.43;;;24.00;99.20;;;;;;5012168;28;20868;-56
2023/06/24 04:22:50;;;;;;;26.37;25.27;;;24.00;99.70;;;;;;5012000;28;20533;-53
2023/06/24 04:25:17;;;;;;;25.73;24.63;;;23.90;99.90;;;;;;5012159;28;20523;-58
2023/06/24 04:27:44;;;;;;;25.53;24.43;;;23.90;99.90;;;;;;5025420;28;20953;-57
2023/06/24 04:30:12;;;;;;;23.80;22.80;;;24.00;99.90;;;;;;5031373;28;20500;-55
2023/06/24 04:32:39;;;;;;;27.43;26.13;;;24.00;99.90;;;;;;5031731;28;20472;-58
2023/06/24 04:35:06;;;;;;;24.77;23.67;;;23.90;99.90;;;;;;5023216;28;20474;-55
2023/06/24 04:37:34;;;;;;;26.07;24.67;;;23.90;99.90;;;;;;5011516;28;20964;-57
2023/06/24 04:40:02;;;;;;;26.97;25.67;;;23.90;99.90;;;;;;5011881;28;20450;-54
2023/06/24 04:42:30;;;;;;;26.17;25.00;;;24.00;99.90;;;;;;5011641;28;20481;-57
2023/06/24 04:44:56;;;;;;;27.73;26.43;;;24.00;99.90;;;;;;5018224;28;20507;-56
2023/06/24 04:47:23;;;;;;;26.37;25.07;;;23.90;99.90;;;;;;5031341;28;20473;-57
2023/06/24 04:49:50;;;;;;;27.00;25.60;;;24.00;99.90;;;;;;5031387;28;20490;-57
2023/06/24 04:52:17;;;;;;;27.67;26.10;;;23.90;99.90;;;;;;5031916;28;20505;-54
2023/06/24 04:54:45;;;;;;;27.53;26.13;;;23.90;99.90;;;;;;5026420;28;20501;-54
2023/06/24 04:57:24;;;;;;;26.83;25.63;;;23.90;99.90;;;;;;5011442;28;20966;-52
2023/06/24 04:59:51;;;;;;;26.33;25.13;;;24.00;99.90;;;;;;5011679;28;20921;-55
2023/06/24 05:02:18;;;;;;;26.57;25.20;;;23.90;99.90;;;;;;5011621;28;20521;-55
2023/06/24 05:04:45;;;;;;;25.53;24.43;;;23.90;99.90;;;;;;5030095;28;20489;-56
2023/06/24 05:07:12;;;;;;;28.07;26.87;;;24.00;99.90;;;;;;5031366;28;20513;-54
2023/06/24 05:09:39;;;;;;;28.07;26.80;;;24.00;99.90;;;;;;5031419;28;20814;-52
2023/06/24 05:12:08;;;;;;;26.57;25.30;;;24.00;99.90;;;;;;5031077;28;20508;-55
2023/06/24 05:14:36;;;;;;;26.57;25.43;;;24.00;99.90;;;;;;5029593;28;20475;-52
2023/06/24 05:17:03;;;;;;;27.00;25.80;;;24.00;99.90;;;;;;5025697;28;20488;-55
2023/06/24 05:19:30;;;;;;;27.63;26.43;;;24.10;99.90;;;;;;5030466;28;20483;-55
2023/06/24 05:21:57;;;;;;;26.30;25.10;;;24.10;99.90;;;;;;5031137;28;20504;-53
2023/06/24 05:24:24;;;;;;;28.00;26.80;;;24.10;99.90;;;;;;5026400;28;20483;-55
2023/06/24 05:26:52;;;;;;;27.80;26.50;;;24.10;99.90;;;;;;5030844;28;21054;-54
2023/06/24 05:29:20;;;;;;;27.17;25.40;;;24.10;99.90;;;;;;5014962;28;20967;-56
2023/06/24 05:31:47;;;;;;;24.90;23.80;;;24.10;99.90;;;;;;5031210;28;20492;-56
2023/06/24 05:34:14;;;;;;;26.80;25.50;;;24.10;99.90;;;;;;5030965;28;20980;-52
2023/06/24 05:36:41;;;;;;;29.67;27.90;;;24.10;99.90;;;;;;5031144;28;20870;-55
2023/06/24 05:39:08;;;;;;;26.53;25.07;;;24.20;99.90;;;;;;5029449;28;20484;-56
2023/06/24 05:41:35;;;;;;;26.00;24.90;;;24.20;99.90;;;;;;5031790;28;20507;-55
2023/06/24 05:44:03;;;;;;;26.67;25.50;;;24.20;99.90;;;;;;5029680;28;20453;-55
2023/06/24 05:46:32;;;;;;;29.23;27.77;;;24.20;99.90;;;;;;5033803;28;20484;-53
2023/06/24 05:48:59;;;;;;;26.90;25.70;;;24.20;99.90;;;;;;5034736;28;20853;-56
2023/06/24 05:51:26;;;;;;;26.70;25.40;;;24.20;99.90;;;;;;5034307;28;20504;-54
2023/06/24 05:53:53;;;;;;;26.60;25.40;;;24.30;99.90;;;;;;5034569;28;20480;-52
2023/06/24 05:56:21;;;;;;;28.40;27.10;;;24.40;99.90;;;;;;5017924;28;20481;-54
2023/06/24 05:58:48;;;;;;;28.27;27.07;;;24.50;99.90;;;;;;5014694;28;20810;-52
2023/06/24 06:01:15;;;;;;;28.80;27.50;;;24.50;99.90;;;;;;5014584;28;20496;-53
2023/06/24 06:03:43;;;;;;;29.23;27.87;;;24.50;99.90;;;;;;5021751;28;20524;-53
2023/06/24 06:06:10;;;;;;;28.73;27.33;;;24.60;99.90;;;;;;5034093;28;21024;-56
2023/06/24 06:08:37;;;;;;;27.67;26.50;;;24.60;99.90;;;;;;5034191;28;20854;-57
2023/06/24 06:11:04;;;;;;;28.37;27.17;;;24.70;99.90;;;;;;5034194;28;20557;-53
2023/06/24 06:13:31;;;;;;;28.57;27.33;;;24.70;99.90;;;;;;5031342;28;20488;-52
2023/06/24 06:15:58;;;;;;;32.30;30.70;;;24.70;99.90;;;;;;5014703;28;20882;-52
2023/06/24 06:18:25;;;;;;;29.20;27.77;;;24.70;99.90;;;;;;5014310;28;20477;-56
2023/06/24 06:20:53;;;;;;;29.83;28.30;;;24.80;99.90;;;;;;5026521;28;20493;-51
2023/06/24 06:23:20;;;;;;;29.67;28.07;;;24.70;99.90;;;;;;5033897;28;20797;-53
2023/06/24 06:25:47;;;;;;;29.47;28.10;;;24.80;99.90;;;;;;5033584;28;20484;-52
2023/06/24 06:28:14;;;;;;;27.83;26.63;;;24.80;99.90;;;;;;5033656;28;20476;-52
2023/06/24 06:30:41;;;;;;;30.10;28.60;;;24.90;99.90;;;;;;5031982;28;20484;-52
2023/06/24 06:33:08;;;;;;;30.07;28.67;;;24.90;99.90;;;;;;5013978;28;20482;-57
2023/06/24 06:35:35;;;;;;;29.57;28.23;;;24.90;99.90;;;;;;5013749;28;20517;-54
2023/06/24 06:38:03;;;;;;;30.33;28.73;;;24.90;99.90;;;;;;5013850;28;20488;-52
2023/06/24 06:40:30;;;;;;;30.50;28.90;;;24.90;99.90;;;;;;5019741;28;20609;-54
2023/06/24 06:42:57;;;;;;;29.57;28.27;;;24.90;99.90;;;;;;5033649;28;20545;-54
2023/06/24 06:45:24;;;;;;;28.70;27.27;;;24.90;99.90;;;;;;5033422;28;20475;-57
2023/06/24 06:47:51;;;;;;;29.50;28.07;;;25.00;99.90;;;;;;5033292;28;20519;-58
2023/06/24 06:50:18;;;;;;;30.00;28.60;;;25.10;99.90;;;;;;5031704;28;20492;-55
2023/06/24 06:52:45;;;;;;;30.33;29.00;;;25.10;99.90;;;;;;5033046;28;20505;-56
2023/06/24 06:55:13;;;;;;;31.77;30.37;;;25.20;99.90;;;;;;5033314;28;20492;-57
2023/06/24 06:57:40;;;;;;;29.00;27.60;;;25.30;99.90;;;;;;5033199;28;20528;-52
2023/06/24 07:00:08;;;;;;;27.77;26.53;;;25.30;99.90;;;;;;5031683;28;20477;-52
2023/06/24 07:02:35;;;;;;;29.03;27.70;;;25.40;99.90;;;;;;5033085;28;20493;-54
2023/06/24 07:05:03;;;;;;;30.03;28.77;;;25.50;99.50;;;;;;5033296;28;20507;-51
2023/06/24 07:07:29;;;;;;;29.73;28.33;;;25.50;99.30;;;;;;5032828;28;20921;-52
2023/06/24 07:09:56;;;;;;;28.67;27.47;;;25.50;98.80;;;;;;5032626;28;20543;-51
2023/06/24 07:12:24;;;;;;;28.37;27.07;;;25.60;98.50;;;;;;5032969;28;20484;-52
2023/06/24 07:14:51;;;;;;;28.77;27.37;;;25.60;98.10;;;;;;5032962;28;20852;-51
2023/06/24 07:17:18;;;;;;;27.33;26.00;;;25.50;98.10;;;;;;5032746;28;20868;-51
2023/06/24 07:19:45;;;;;;;27.90;26.43;;;25.60;98.30;;;;;;5017190;28;20579;-55
2023/06/24 07:22:12;;;;;;;29.37;27.80;;;25.60;97.80;;;;;;5032808;28;20540;-50
2023/06/24 07:24:39;;;;;;;28.20;26.87;;;25.50;96.90;;;;;;5032736;28;20482;-50
2023/06/24 07:27:07;;;;;;;28.53;27.23;;;25.60;96.50;;;;;;5032495;28;20480;-52
2023/06/24 07:29:35;;;;;;;27.63;26.43;;;25.60;95.80;;;;;;5031719;28;20476;-54
2023/06/24 07:32:02;;;;;;;26.77;25.67;;;25.50;95.50;;;;;;5032439;28;20505;-58
2023/06/24 07:34:30;;;;;;;27.27;26.17;;;25.70;95.90;;;;;;5032611;28;20489;-50
2023/06/24 07:37:00;;;;;;;29.67;28.43;;;25.70;95.50;;;;;;5032298;28;20680;-50
2023/06/24 07:39:31;;;;;;;26.43;25.43;;;25.70;94.80;;;;;;5019249;28;20540;-50
2023/06/24 07:41:59;;;;;;;28.10;27.00;;;25.70;94.10;;;;;;5030713;28;21004;-51
2023/06/24 07:44:28;;;;;;;27.53;26.30;;;25.70;93.80;;;;;;5031268;28;20499;-50
2023/06/24 07:46:58;;;;;;;27.30;26.20;;;25.70;93.40;;;;;;5032069;28;20485;-51
2023/06/24 07:49:26;;;;;;;26.70;25.60;;;25.80;93.00;;;;;;5029673;28;20457;-51
2023/06/24 07:51:55;;;;;;;29.03;27.57;;;25.60;92.80;;;;;;5020724;28;20474;-50
2023/06/24 07:54:24;;;;;;;26.10;25.07;;;25.60;92.60;;;;;;5011393;28;20481;-49
2023/06/24 07:56:51;;;;;;;26.40;25.40;;;25.60;92.30;;;;;;5012313;28;20500;-49
2023/06/24 07:59:18;;;;;;;28.60;27.40;;;25.60;92.10;;;;;;5016477;28;20860;-50
2023/06/24 08:01:45;;;;;;;28.00;26.80;;;25.70;91.60;;;;;;5012376;28;20501;-49
2023/06/24 08:04:19;;;;;;;27.53;26.23;;;25.60;91.80;;;;;;5011848;28;20470;-51
2023/06/24 08:06:47;;;;;;;30.00;28.60;;;25.70;91.60;;;;;;5012069;28;20489;-56
2023/06/24 08:09:19;;;;;;;27.73;26.60;;;25.70;91.40;;;;;;5012600;28;20457;-55
2023/06/24 08:11:47;;;;;;;29.23;28.03;;;25.70;91.70;;;;;;5012388;28;20488;-52
2023/06/24 08:14:18;;;;;;;27.30;26.20;;;25.70;90.90;;;;;;5011888;28;20544;-56
2023/06/24 08:16:45;;;;;;;27.80;26.70;;;25.70;91.00;;;;;;5013178;28;20940;-52
2023/06/24 08:19:20;;;;;;;28.40;27.30;;;25.80;90.70;;;;;;5012327;28;20446;-50
2023/06/24 08:21:50;;;;;;;28.67;27.60;;;25.70;90.20;;;;;;5012102;28;20461;-50
2023/06/24 08:24:21;;;;;;;29.47;28.27;;;25.80;89.90;;;;;;5012081;28;20437;-52
2023/06/24 08:26:49;;;;;;;27.17;26.13;;;25.80;87.90;;;;;;5014032;28;20485;-51
2023/06/24 08:29:17;;;;;;;29.90;28.60;;;25.80;88.40;;;;;;5031296;28;20506;-54
2023/06/24 08:31:46;;;;;;;29.07;27.67;;;25.80;88.10;;;;;;5031708;28;20501;-54
2023/06/24 08:34:14;;;;;;;30.73;29.30;;;25.70;87.40;;;;;;5031679;28;20449;-50
2023/06/24 08:36:45;;;;;;;29.67;28.47;;;25.60;87.40;;;;;;5029985;28;20469;-51
2023/06/24 08:39:15;;;;;;;30.60;29.20;;;25.60;88.40;;;;;;5011759;28;20454;-50
2023/06/24 08:41:45;;;;;;;29.13;27.73;;;25.60;88.80;;;;;;5011724;28;20545;-50
2023/06/24 08:44:14;;;;;;;28.43;27.13;;;25.60;88.40;;;;;;5012005;28;20482;-52
2023/06/24 08:46:42;;;;;;;30.53;29.03;;;25.70;89.40;;;;;;5012098;28;20847;-51
2023/06/24 08:49:19;;;;;;;29.50;28.10;;;25.70;89.10;;;;;;5031426;28;20453;-51
2023/06/24 08:51:50;;;;;;;28.50;27.17;;;25.70;90.00;;;;;;5031513;28;21022;-58
2023/06/24 08:54:20;;;;;;;28.70;27.30;;;25.70;90.70;;;;;;5031659;28;20476;-53
2023/06/24 08:56:47;;;;;;;30.13;28.93;;;25.90;90.60;;;;;;5030783;28;20473;-56
2023/06/24 08:59:19;;;;;;;30.83;29.30;;;25.90;90.30;;;;;;5011955;28;20472;-56
2023/06/24 09:01:46;;;;;;;28.80;27.50;;;25.90;90.50;;;;;;5011747;28;20497;-57
2023/06/24 09:04:13;;;;;;;29.00;27.77;;;25.90;90.70;;;;;;5011804;28;20533;-61
2023/06/24 09:06:41;;;;;;;30.47;28.97;;;26.00;90.70;;;;;;5031255;28;20568;-56
2023/06/24 09:09:19;;;;;;;28.30;27.20;;;26.00;90.30;;;;;;5031286;28;20468;-54
2023/06/24 09:11:54;;;;;;;28.90;27.80;;;26.10;90.40;;;;;;5031283;28;20556;-55
2023/06/24 09:14:21;;;;;;;30.97;29.50;;;26.10;90.60;;;;;;5031584;28;20444;-56
2023/06/24 09:16:54;;;;;;;29.20;28.00;;;26.10;90.40;;;;;;5034017;28;20468;-54
2023/06/24 09:19:22;;;;;;;28.57;27.37;;;26.10;90.20;;;;;;5035404;28;20506;-61
2023/06/24 09:21:51;;;;;;;28.90;27.73;;;26.10;90.30;;;;;;5035218;28;20508;-53
2023/06/24 09:24:18;;;;;;;27.37;26.27;;;26.20;90.10;;;;;;5035254;28;20449;-51
2023/06/24 09:26:45;;;;;;;29.03;27.70;;;26.20;90.00;;;;;;5021101;28;20741;-53
2023/06/24 09:29:13;;;;;;;29.67;28.47;;;26.20;90.10;;;;;;5015223;28;20441;-52
2023/06/24 09:31:48;;;;;;;28.63;27.43;;;26.20;89.50;;;;;;5015283;28;20991;-61
2023/06/24 09:34:15;;;;;;;28.90;27.70;;;26.10;88.00;;;;;;5015178;28;20453;-58
2023/06/24 09:36:44;;;;;;;30.13;28.87;;;26.20;88.30;;;;;;5015267;28;20474;-56
2023/06/24 09:39:12;;;;;;;28.80;27.60;;;26.20;88.00;;;;;;5015149;28;20450;-50
2023/06/24 09:41:42;;;;;;;28.60;27.23;;;26.30;87.80;;;;;;5014966;28;20462;-50
2023/06/24 09:44:11;;;;;;;29.60;28.50;;;26.30;85.90;;;;;;5014922;28;20797;-59
2023/06/24 09:46:38;;;;;;;27.83;26.63;;;26.30;85.00;;;;;;5014762;28;20537;-59
2023/06/24 09:49:05;;;;;;;30.87;29.67;;;26.30;84.20;;;;;;5014974;28;20477;-51
2023/06/24 09:51:36;;;;;;;28.17;26.90;;;26.40;84.50;;;;;;5014581;28;20477;-51
2023/06/24 09:54:05;;;;;;;26.17;25.08;;;26.40;84.40;;;;;;5029203;28;20529;-51
2023/06/24 09:56:36;;;;;;;28.97;27.60;;;26.40;80.80;;;;;;5034366;28;20294;-49
2023/06/24 09:59:05;;;;;;;29.33;28.13;;;26.40;79.30;;;;;;5030662;28;20485;-50
2023/06/24 10:01:33;;;;;;;30.50;29.27;;;26.50;76.70;;;;;;5014542;28;20475;-51
2023/06/24 10:04:01;;;;;;;31.33;30.03;;;26.50;77.00;;;;;;5025399;28;20448;-55
2023/06/24 10:06:29;;;;;;;30.47;29.20;;;26.50;77.90;;;;;;5034286;28;20492;-58
2023/06/24 10:08:56;;;;;;;30.57;29.23;;;26.50;78.90;;;;;;5034227;28;20515;-51
2023/06/24 10:11:24;;;;;;;29.17;27.87;;;26.50;78.00;;;;;;5034220;28;20557;-52
2023/06/24 10:13:52;;;;;;;32.93;31.53;;;26.50;76.40;;;;;;5034372;28;20469;-52
2023/06/24 10:16:19;;;;;;;32.57;31.17;;;26.50;76.50;;;;;;5034089;28;20441;-52
2023/06/24 10:18:48;;;;;;;29.30;28.10;;;26.40;75.60;;;;;;5034165;28;20963;-52
2023/06/24 10:21:16;;;;;;;29.57;28.47;;;26.40;77.10;;;;;;5034048;28;20476;-52
2023/06/24 10:23:53;;;;;;;29.20;27.50;;;26.50;77.80;;;;;;5034183;28;20487;-52
2023/06/24 10:26:25;;;;;;;29.13;27.93;;;26.50;74.50;;;;;;5033994;28;20445;-53
2023/06/24 10:29:14;;;;;;;30.53;29.23;;;26.50;74.20;;;;;;5033319;28;20488;-54
2023/06/24 10:31:55;;;;;;;27.70;26.50;;;26.50;75.90;;;;;;5033829;28;20979;-51
2023/06/24 10:34:27;;;;;;;29.20;27.80;;;26.50;75.80;;;;;;5033909;28;20452;-55
2023/06/24 10:36:55;;;;;;;29.10;27.70;;;26.60;74.10;;;;;;5033728;28;20484;-53
2023/06/24 10:39:39;;;;;;;26.37;25.07;;;26.60;73.60;;;;;;5033647;28;20950;-54
2023/06/24 10:42:29;;;;;;;28.00;26.90;;;26.60;70.50;;;;;;5033711;28;20882;-56
2023/06/24 10:44:58;;;;;;;28.33;27.23;;;26.60;69.90;;;;;;5033688;28;20850;-55
2023/06/24 10:47:26;;;;;;;27.40;26.40;;;26.60;70.00;;;;;;5033331;28;20580;-53
2023/06/24 10:49:53;;;;;;;27.77;26.67;;;26.60;69.90;;;;;;5033671;28;20951;-51
2023/06/24 10:52:21;;;;;;;27.20;26.10;;;26.60;70.00;;;;;;5047997;22;20525;-59
2023/06/24 10:54:49;;;;;;;28.20;27.00;;;26.60;67.80;;;;;;5013471;28;20446;-63
2023/06/24 10:57:21;;;;;;;27.47;26.10;;;26.60;67.90;;;;;;5013330;28;20496;-57
2023/06/24 10:59:49;;;;;;;27.40;26.30;;;26.50;66.90;;;;;;5013401;28;20953;-61
2023/06/24 11:02:18;;;;;;;29.53;28.10;;;26.50;67.70;;;;;;5001471;28;20475;-59
2023/06/24 11:04:45;;;;;;;28.70;27.50;;;26.50;68.30;;;;;;4985547;28;20828;-53
2023/06/24 11:07:12;;;;;;;27.40;26.37;;;26.50;68.10;;;;;;4978761;28;20482;-62
2023/06/24 11:09:41;;;;;;;31.13;29.87;;;26.50;65.80;;;;;;4981687;28;20971;-64
2023/06/24 11:12:10;;;;;;;29.00;27.80;;;26.50;65.70;;;;;;4993190;28;20513;-60
2023/06/24 11:14:37;;;;;;;28.07;26.97;;;26.60;65.40;;;;;;4987901;28;20530;-56
2023/06/24 11:17:05;;;;;;;28.70;27.43;;;26.50;61.60;;;;;;4982125;28;20484;-62
2023/06/24 11:19:35;;;;;;;30.00;28.57;;;26.50;60.70;;;;;;4992339;28;20486;-61
2023/06/24 11:22:03;;;;;;;28.67;27.50;;;26.50;61.60;;;;;;4979300;28;20483;-58
2023/06/24 11:24:30;;;;;;;27.50;26.30;;;26.50;62.50;;;;;;4985879;28;20472;-64
2023/06/24 11:26:57;;;;;;;30.20;28.87;;;26.50;63.40;;;;;;4986120;28;20479;-63
2023/06/24 11:29:24;;;;;;;27.70;26.70;;;26.50;63.70;;;;;;4993417;28;20515;-62
2023/06/24 11:31:51;;;;;;;29.60;28.50;;;26.50;63.50;;;;;;4973801;28;20503;-57
2023/06/24 11:34:18;;;;;;;28.57;27.40;;;26.60;63.10;;;;;;4973779;28;20491;-58
2023/06/24 11:36:46;;;;;;;30.00;28.80;;;26.60;62.30;;;;;;4973527;28;20448;-57
2023/06/24 11:39:24;;;;;;;27.03;26.03;;;26.60;60.80;;;;;;4972817;28;20885;-59
2023/06/24 11:41:52;;;;;;;29.07;27.87;;;26.70;60.90;;;;;;4975436;28;20518;-61
2023/06/24 11:44:20;;;;;;;29.30;28.00;;;26.70;61.80;;;;;;4993050;28;20538;-60
2023/06/24 11:46:47;;;;;;;28.80;27.60;;;26.80;63.80;;;;;;4992839;28;20940;-61
2023/06/24 11:49:15;;;;;;;28.03;26.90;;;26.90;63.90;;;;;;4992904;28;20577;-60
2023/06/24 11:51:49;;;;;;;27.80;26.67;;;26.90;64.30;;;;;;4992878;28;20481;-60
2023/06/24 11:54:17;;;;;;;30.17;28.87;;;26.90;64.50;;;;;;4993135;28;20478;-58
2023/06/24 11:56:46;;;;;;;26.70;25.60;;;27.00;64.60;;;;;;4992695;28;20483;-61
2023/06/24 11:59:20;;;;;;;28.90;27.70;;;27.10;63.90;;;;;;4992734;28;20447;-57
2023/06/24 12:01:55;;;;;;;28.23;27.13;;;27.10;62.80;;;;;;4992829;28;21076;-55
2023/06/24 12:04:22;;;;;;;27.17;26.07;;;27.10;60.20;;;;;;4992836;28;20454;-56
2023/06/24 12:06:50;;;;;;;30.87;29.57;;;27.10;61.40;;;;;;4992492;28;20474;-57
2023/06/24 12:09:17;;;;;;;26.67;25.57;;;27.20;61.30;;;;;;4992505;28;20570;-55
2023/06/24 12:11:44;;;;;;;26.63;25.43;;;27.20;60.80;;;;;;4992643;28;20467;-61
2023/06/24 12:14:11;;;;;;;26.87;25.83;;;27.20;60.70;;;;;;4992571;28;20443;-52
2023/06/24 12:16:39;;;;;;;27.60;26.40;;;27.30;61.50;;;;;;4992383;28;20542;-60
2023/06/24 12:19:07;;;;;;;26.30;25.20;;;27.30;61.90;;;;;;4984779;28;20819;-55
2023/06/24 12:21:33;;;;;;;25.80;24.53;;;27.30;62.10;;;;;;4972974;28;20504;-57
2023/06/24 12:24:02;;;;;;;29.17;27.87;;;27.20;62.10;;;;;;4973007;28;20455;-60
2023/06/24 12:26:29;;;;;;;27.10;26.00;;;27.30;59.30;;;;;;4972965;28;20471;-60
2023/06/24 12:28:56;;;;;;;29.97;28.77;;;27.30;58.70;;;;;;4977537;28;20566;-59
2023/06/24 12:31:24;;;;;;;28.03;26.97;;;27.30;58.30;;;;;;4990724;28;20463;-58
2023/06/24 12:33:51;;;;;;;26.03;25.07;;;27.30;57.50;;;;;;4981235;28;20534;-60
2023/06/24 12:36:18;;;;;;;27.83;26.83;;;27.30;56.80;;;;;;4991985;28;20490;-59